createdAt,value
2023-02-12T00:00:50.132Z,118.82
2023-02-12T00:03:17.203Z,115.25
2023-02-12T00:05:43.825Z,112.72
2023-02-12T00:08:11.960Z,115.03
2023-02-12T00:10:43.054Z,112.20
2023-02-12T00:13:13.422Z,111.32
2023-02-12T00:15:42.050Z,118.32
2023-02-12T00:18:08.885Z,110.95
2023-02-12T00:20:36.845Z,114.35
2023-02-12T00:23:10.556Z,116.05
2023-02-12T00:25:41.925Z,112.90
2023-02-12T00:28:08.614Z,111.45
2023-02-12T00:30:35.933Z,118.85
2023-02-12T00:33:02.997Z,111.35
2023-02-12T00:35:29.726Z,112.68
2023-02-12T00:37:56.365Z,116.70
2023-02-12T00:40:22.987Z,117.50
2023-02-12T00:42:49.584Z,111.55
2023-02-12T00:45:16.290Z,118.80
2023-02-12T00:47:43.049Z,119.65
2023-02-12T00:50:10.224Z,118.78
2023-02-12T00:52:36.873Z,117.00
2023-02-12T00:55:04.088Z,114.72
2023-02-12T00:57:30.874Z,113.43
2023-02-12T00:59:57.472Z,116.88
2023-02-12T01:02:24.043Z,117.95
2023-02-12T01:04:50.698Z,116.97
2023-02-12T01:07:17.304Z,110.63
2023-02-12T01:09:43.920Z,119.38
2023-02-12T01:12:10.545Z,118.63
2023-02-12T01:14:37.128Z,112.85
2023-02-12T01:17:03.769Z,120.15
2023-02-12T01:19:30.386Z,116.10
2023-02-12T01:21:56.975Z,116.15
2023-02-12T01:24:23.623Z,116.38
2023-02-12T01:26:50.226Z,120.55
2023-02-12T01:29:16.837Z,115.40
2023-02-12T01:31:43.628Z,114.57
2023-02-12T01:34:11.695Z,111.47
2023-02-12T01:36:38.583Z,114.03
2023-02-12T01:39:06.380Z,121.13
2023-02-12T01:41:41.255Z,110.68
2023-02-12T01:44:10.698Z,117.93
2023-02-12T01:46:37.491Z,116.32
2023-02-12T01:49:07.490Z,115.75
2023-02-12T01:51:35.041Z,118.25
2023-02-12T01:54:07.409Z,115.15
2023-02-12T01:56:34.943Z,110.63
2023-02-12T01:59:01.957Z,117.45
2023-02-12T02:01:30.733Z,112.80
2023-02-12T02:04:02.032Z,114.63
2023-02-12T02:06:34.418Z,115.07
2023-02-12T02:09:02.477Z,112.63
2023-02-12T02:11:47.665Z,113.13
2023-02-12T02:14:32.648Z,114.22
2023-02-12T02:17:33.408Z,112.75
2023-02-12T02:20:27.710Z,112.38
2023-02-12T02:23:17.276Z,113.75
2023-02-12T02:26:18.219Z,111.70
2023-02-12T02:29:21.959Z,115.65
2023-02-12T02:32:22.783Z,115.03
2023-02-12T02:35:18.495Z,118.38
2023-02-12T02:38:12.745Z,115.03
2023-02-12T02:40:53.380Z,112.63
2023-02-12T02:43:27.988Z,117.82
2023-02-12T02:46:03.110Z,114.28
2023-02-12T02:48:36.599Z,113.13
2023-02-12T02:51:14.433Z,113.05
2023-02-12T02:53:53.699Z,116.18
2023-02-12T02:56:22.959Z,117.97
2023-02-12T02:58:57.725Z,116.55
2023-02-12T03:01:38.487Z,112.55
2023-02-12T03:04:17.447Z,109.90
2023-02-12T03:06:50.568Z,112.97
2023-02-12T03:09:32.586Z,119.22
2023-02-12T03:12:05.258Z,113.85
2023-02-12T03:14:59.440Z,119.63
2023-02-12T03:17:32.467Z,115.78
2023-02-12T03:20:16.538Z,121.95
2023-02-12T03:22:51.358Z,113.72
2023-02-12T03:25:26.569Z,114.70
2023-02-12T03:28:11.268Z,119.50
2023-02-12T03:31:07.138Z,114.78
2023-02-12T03:33:45.913Z,114.47
2023-02-12T03:36:38.126Z,113.10
2023-02-12T03:39:15.119Z,115.90
2023-02-12T03:41:50.244Z,122.97
2023-02-12T03:44:20.086Z,116.25
2023-02-12T03:47:02.911Z,114.00
2023-02-12T03:49:32.209Z,116.00
2023-02-12T03:51:59.282Z,115.43
2023-02-12T03:54:26.786Z,114.85
2023-02-12T03:57:10.393Z,116.25
2023-02-12T03:59:39.164Z,122.32
2023-02-12T04:02:06.985Z,118.93
2023-02-12T04:04:34.883Z,116.85
2023-02-12T04:07:02.094Z,118.70
2023-02-12T04:09:30.942Z,121.30
2023-02-12T04:12:31.025Z,117.25
2023-02-12T04:15:22.379Z,120.57
2023-02-12T04:18:08.784Z,121.97
2023-02-12T04:20:41.752Z,116.28
2023-02-12T04:23:23.182Z,118.45
2023-02-12T04:26:10.156Z,116.60
2023-02-12T04:29:06.096Z,117.07
2023-02-12T04:31:42.462Z,114.78
2023-02-12T04:34:28.077Z,115.95
2023-02-12T04:37:02.650Z,115.13
2023-02-12T04:39:32.779Z,114.68
2023-02-12T04:42:01.044Z,115.32
2023-02-12T04:44:31.269Z,117.38
2023-02-12T04:46:58.233Z,113.93
2023-02-12T04:49:26.071Z,118.45
2023-02-12T04:51:53.045Z,117.90
2023-02-12T04:54:20.966Z,114.80
2023-02-12T04:56:48.116Z,111.10
2023-02-12T04:59:15.380Z,112.75
2023-02-12T05:01:43.094Z,116.13
2023-02-12T05:04:15.141Z,114.95
2023-02-12T05:06:43.265Z,118.28
2023-02-12T05:09:14.270Z,116.53
2023-02-12T05:11:40.876Z,119.53
2023-02-12T05:14:07.553Z,114.88
2023-02-12T05:16:34.211Z,120.55
2023-02-12T05:19:00.968Z,118.90
2023-02-12T05:21:27.689Z,117.38
2023-02-12T05:23:54.353Z,124.20
2023-02-12T05:26:22.218Z,119.03
2023-02-12T05:28:49.066Z,116.07
2023-02-12T05:31:21.106Z,118.03
2023-02-12T05:33:48.901Z,120.25
2023-02-12T05:36:21.879Z,115.35
2023-02-12T05:38:49.591Z,115.63
2023-02-12T05:41:21.932Z,114.05
2023-02-12T05:43:49.888Z,115.68
2023-02-12T05:46:18.137Z,115.35
2023-02-12T05:48:44.962Z,119.72
2023-02-12T05:51:17.853Z,116.72
2023-02-12T05:53:44.515Z,121.28
2023-02-12T05:56:14.297Z,117.80
2023-02-12T05:58:42.850Z,117.78
2023-02-12T06:01:18.655Z,115.13
2023-02-12T06:03:45.460Z,116.43
2023-02-12T06:06:12.698Z,114.47
2023-02-12T06:08:40.110Z,118.47
2023-02-12T06:11:10.885Z,113.93
2023-02-12T06:13:37.524Z,117.28
2023-02-12T06:16:04.827Z,111.97
2023-02-12T06:18:31.910Z,116.80
2023-02-12T06:20:58.585Z,116.07
2023-02-12T06:23:25.441Z,111.45
2023-02-12T06:25:57.010Z,117.88
2023-02-12T06:28:23.936Z,117.90
2023-02-12T06:30:50.830Z,116.00
2023-02-12T06:33:17.522Z,109.50
2023-02-12T06:35:44.175Z,117.00
2023-02-12T06:38:10.905Z,112.85
2023-02-12T06:40:37.480Z,114.18
2023-02-12T06:43:04.115Z,118.75
2023-02-12T06:45:30.747Z,115.60
2023-02-12T06:47:57.365Z,114.53
2023-02-12T06:50:24.570Z,116.25
2023-02-12T06:52:51.301Z,116.20
2023-02-12T06:55:18.178Z,116.88
2023-02-12T06:57:44.889Z,120.30
2023-02-12T07:00:12.533Z,117.80
2023-02-12T07:02:39.225Z,118.88
2023-02-12T07:05:06.337Z,116.88
2023-02-12T07:07:33.446Z,118.70
2023-02-12T07:10:00.105Z,122.78
2023-02-12T07:12:26.723Z,120.45
2023-02-12T07:14:53.346Z,118.57
2023-02-12T07:17:19.996Z,124.05
2023-02-12T07:19:46.613Z,118.20
2023-02-12T07:22:13.222Z,120.65
2023-02-12T07:24:40.093Z,118.30
2023-02-12T07:27:06.717Z,116.65
2023-02-12T07:29:33.421Z,116.72
2023-02-12T07:32:00.776Z,120.75
2023-02-12T07:34:27.435Z,117.65
2023-02-12T07:36:54.037Z,119.53
2023-02-12T07:39:20.753Z,116.88
2023-02-12T07:41:47.387Z,117.10
2023-02-12T07:44:14.040Z,116.68
2023-02-12T07:46:45.671Z,118.97
2023-02-12T07:49:20.040Z,117.43
2023-02-12T07:51:47.124Z,119.00
2023-02-12T07:54:14.415Z,121.38
2023-02-12T07:56:42.750Z,118.72
2023-02-12T07:59:14.727Z,124.85
2023-02-12T08:01:45.240Z,120.00
2023-02-12T08:04:14.335Z,118.10
2023-02-12T08:06:43.888Z,118.38
2023-02-12T08:09:13.482Z,119.93
2023-02-12T08:11:41.925Z,121.53
2023-02-12T08:14:10.761Z,121.07
2023-02-12T08:16:39.485Z,134.60
2023-02-12T08:19:17.572Z,135.43
2023-02-12T08:21:47.195Z,127.15
2023-02-12T08:24:13.874Z,126.88
2023-02-12T08:26:40.750Z,125.80
2023-02-12T08:29:09.855Z,132.68
2023-02-12T08:31:41.857Z,130.73
2023-02-12T08:34:18.530Z,126.55
2023-02-12T08:36:45.404Z,130.07
2023-02-12T08:39:12.475Z,130.82
2023-02-12T08:41:42.154Z,131.82
2023-02-12T08:44:09.759Z,135.15
2023-02-12T08:46:39.608Z,127.18
2023-02-12T08:49:11.778Z,130.38
2023-02-12T08:51:40.747Z,132.82
2023-02-12T08:54:12.309Z,131.75
2023-02-12T08:56:39.737Z,134.25
2023-02-12T08:59:07.664Z,136.02
2023-02-12T09:01:38.530Z,135.50
2023-02-12T09:04:05.880Z,133.10
2023-02-12T09:06:34.855Z,136.48
2023-02-12T09:09:02.458Z,136.93
2023-02-12T09:11:32.902Z,134.75
2023-02-12T09:14:02.072Z,140.65
2023-02-12T09:16:31.136Z,137.32
2023-02-12T09:18:58.582Z,148.27
2023-02-12T09:21:25.607Z,143.07
2023-02-12T09:23:52.817Z,133.70
2023-02-12T09:26:21.782Z,129.48
2023-02-12T09:28:49.981Z,136.32
2023-02-12T09:31:26.672Z,137.63
2023-02-12T09:33:55.564Z,136.43
2023-02-12T09:36:22.439Z,141.10
2023-02-12T09:38:49.656Z,142.65
2023-02-12T09:41:38.142Z,138.63
2023-02-12T09:44:29.914Z,143.52
2023-02-12T09:47:04.868Z,132.02
2023-02-12T09:49:49.943Z,152.50
2023-02-12T09:52:20.412Z,150.63
2023-02-12T09:54:48.704Z,138.93
2023-02-12T09:57:26.362Z,134.85
2023-02-12T09:59:58.193Z,137.63
2023-02-12T10:02:25.199Z,146.00
2023-02-12T10:05:01.006Z,135.38
2023-02-12T10:07:48.391Z,141.77
2023-02-12T10:10:21.846Z,144.32
2023-02-12T10:13:03.841Z,137.50
2023-02-12T10:16:01.578Z,130.07
2023-02-12T10:18:49.559Z,135.75
2023-02-12T10:21:51.635Z,132.35
2023-02-12T10:24:27.158Z,141.18
2023-02-12T10:26:58.498Z,134.10
2023-02-12T10:29:30.174Z,138.43
2023-02-12T10:32:13.047Z,137.73
2023-02-12T10:34:42.379Z,138.75
2023-02-12T10:37:37.269Z,126.93
2023-02-12T10:40:16.695Z,135.82
2023-02-12T10:42:47.153Z,130.18
2023-02-12T10:45:16.488Z,129.32
2023-02-12T10:47:45.935Z,142.55
2023-02-12T10:50:49.862Z,134.15
2023-02-12T10:53:24.710Z,131.95
2023-02-12T10:56:11.331Z,144.18
2023-02-12T10:58:50.238Z,137.98
2023-02-12T11:01:34.140Z,131.88
2023-02-12T11:04:26.151Z,131.35
2023-02-12T11:07:07.949Z,126.50
2023-02-12T11:09:45.398Z,135.70
2023-02-12T11:12:32.510Z,132.50
2023-02-12T11:15:02.786Z,130.18
2023-02-12T11:17:41.075Z,130.20
2023-02-12T11:20:16.489Z,133.20
2023-02-12T11:23:03.069Z,127.10
2023-02-12T11:25:32.442Z,133.23
2023-02-12T11:28:05.944Z,127.80
2023-02-12T11:30:33.046Z,133.18
2023-02-12T11:33:16.537Z,133.45
2023-02-12T11:36:12.004Z,131.30
2023-02-12T11:38:47.843Z,131.05
2023-02-12T11:41:36.007Z,126.30
2023-02-12T11:44:19.859Z,125.95
2023-02-12T11:46:56.311Z,127.13
2023-02-12T11:49:28.362Z,136.13
2023-02-12T11:51:57.011Z,125.95
2023-02-12T11:54:27.244Z,127.60
2023-02-12T11:56:55.400Z,124.78
2023-02-12T11:59:31.683Z,129.95
2023-02-12T12:02:20.629Z,129.60
2023-02-12T12:04:51.778Z,130.23
2023-02-12T12:07:29.777Z,128.48
2023-02-12T12:10:10.780Z,124.85
2023-02-12T12:12:48.152Z,124.75
2023-02-12T12:15:48.256Z,125.55
2023-02-12T12:18:48.788Z,124.68
2023-02-12T12:21:36.785Z,127.07
2023-02-12T12:24:15.569Z,121.70
2023-02-12T12:26:47.403Z,124.22
2023-02-12T12:29:26.826Z,118.25
2023-02-12T12:32:01.536Z,119.95
2023-02-12T12:34:29.170Z,123.25
2023-02-12T12:36:58.878Z,118.40
2023-02-12T12:39:34.853Z,121.40
2023-02-12T12:42:28.329Z,121.65
2023-02-12T12:45:32.404Z,120.40
2023-02-12T12:48:20.119Z,123.78
2023-02-12T12:51:27.703Z,118.63
2023-02-12T12:54:21.494Z,118.38
2023-02-12T12:57:23.638Z,116.38
2023-02-12T13:00:25.696Z,109.43
2023-02-12T13:03:10.984Z,107.95
2023-02-12T13:06:07.872Z,109.82
2023-02-12T13:09:03.525Z,112.72
2023-02-12T13:11:40.915Z,117.45
2023-02-12T13:14:18.036Z,126.72
2023-02-12T13:16:59.143Z,113.63
2023-02-12T13:20:01.815Z,113.65
2023-02-12T13:22:40.381Z,115.57
2023-02-12T13:25:21.538Z,117.32
2023-02-12T13:27:50.389Z,116.55
2023-02-12T13:30:48.910Z,115.47
2023-02-12T13:33:21.639Z,118.72
2023-02-12T13:35:53.812Z,126.40
2023-02-12T13:38:29.472Z,115.53
2023-02-12T13:41:02.096Z,110.50
2023-02-12T13:43:34.604Z,112.22
2023-02-12T13:46:18.663Z,117.70
2023-02-12T13:49:14.331Z,116.03
2023-02-12T13:51:52.056Z,118.00
2023-02-12T13:54:24.677Z,115.45
2023-02-12T13:56:56.819Z,113.13
2023-02-12T13:59:32.438Z,116.43
2023-02-12T14:02:22.325Z,116.55
2023-02-12T14:05:20.979Z,122.22
2023-02-12T14:07:51.224Z,111.68
2023-02-12T14:10:29.835Z,113.80
2023-02-12T14:13:24.204Z,116.20
2023-02-12T14:15:53.238Z,110.68
2023-02-12T14:18:35.885Z,116.63
2023-02-12T14:21:11.347Z,115.38
2023-02-12T14:23:46.024Z,116.18
2023-02-12T14:26:15.403Z,112.32
2023-02-12T14:28:54.816Z,112.65
2023-02-12T14:31:27.635Z,113.32
2023-02-12T14:34:06.717Z,118.78
2023-02-12T14:36:33.375Z,114.60
2023-02-12T14:39:03.754Z,119.45
2023-02-12T14:41:34.643Z,118.07
2023-02-12T14:44:27.306Z,116.65
2023-02-12T14:46:59.776Z,112.68
2023-02-12T14:49:55.628Z,112.97
2023-02-12T14:52:27.360Z,114.28
2023-02-12T14:55:00.159Z,114.18
2023-02-12T14:57:32.741Z,113.72
2023-02-12T15:00:20.803Z,113.53
2023-02-12T15:02:59.543Z,112.25
2023-02-12T15:05:43.556Z,115.32
2023-02-12T15:08:41.252Z,111.35
2023-02-12T15:11:21.851Z,114.88
2023-02-12T15:14:08.811Z,111.03
2023-02-12T15:16:38.126Z,109.85
2023-02-12T15:19:10.657Z,114.47
2023-02-12T15:21:38.090Z,107.78
2023-02-12T15:24:13.027Z,103.97
2023-02-12T15:26:42.492Z,108.78
2023-02-12T15:29:25.994Z,107.90
2023-02-12T15:31:55.840Z,103.22
2023-02-12T15:34:26.150Z,105.68
2023-02-12T15:36:54.754Z,106.75
2023-02-12T15:39:23.612Z,104.28
2023-02-12T15:41:51.054Z,103.07
2023-02-12T15:44:32.203Z,105.75
2023-02-12T15:47:12.333Z,104.70
2023-02-12T15:49:41.538Z,103.38
2023-02-12T15:52:09.961Z,106.05
2023-02-12T15:54:38.078Z,101.68
2023-02-12T15:57:11.133Z,101.70
2023-02-12T15:59:38.193Z,102.28
2023-02-12T16:02:19.508Z,98.50
2023-02-12T16:04:46.674Z,100.15
2023-02-12T16:07:14.915Z,102.10
2023-02-12T16:09:42.552Z,100.90
2023-02-12T16:12:18.278Z,102.22
2023-02-12T16:14:54.399Z,103.72
2023-02-12T16:17:38.087Z,99.85
2023-02-12T16:20:22.907Z,99.32
2023-02-12T16:22:50.477Z,100.85
2023-02-12T16:25:18.509Z,101.45
2023-02-12T16:28:00.850Z,100.20
2023-02-12T16:30:34.885Z,102.10
2023-02-12T16:33:02.380Z,103.90
2023-02-12T16:35:32.254Z,102.57
2023-02-12T16:38:21.724Z,100.85
2023-02-12T16:41:20.472Z,103.63
2023-02-12T16:43:49.837Z,99.70
2023-02-12T16:46:17.956Z,100.47
2023-02-12T16:48:49.311Z,100.07
2023-02-12T16:51:30.477Z,98.97
2023-02-12T16:53:59.507Z,102.53
2023-02-12T16:56:29.657Z,101.40
2023-02-12T16:59:00.749Z,101.03
2023-02-12T17:01:28.858Z,100.75
2023-02-12T17:03:57.606Z,101.68
2023-02-12T17:06:27.187Z,100.13
2023-02-12T17:08:53.833Z,99.43
2023-02-12T17:11:21.270Z,103.38
2023-02-12T17:13:50.316Z,102.10
2023-02-12T17:16:29.760Z,104.43
2023-02-12T17:18:57.755Z,99.95
2023-02-12T17:21:30.590Z,99.32
2023-02-12T17:23:57.274Z,105.55
2023-02-12T17:26:24.730Z,103.15
2023-02-12T17:28:51.366Z,103.72
2023-02-12T17:31:19.438Z,106.72
2023-02-12T17:33:46.264Z,102.53
2023-02-12T17:36:13.031Z,104.28
2023-02-12T17:38:39.755Z,103.85
2023-02-12T17:41:10.620Z,104.85
2023-02-12T17:43:37.351Z,103.00
2023-02-12T17:46:10.279Z,105.03
2023-02-12T17:48:37.076Z,105.88
2023-02-12T17:51:03.865Z,104.18
2023-02-12T17:53:30.478Z,106.05
2023-02-12T17:55:57.077Z,106.55
2023-02-12T17:58:23.776Z,105.00
2023-02-12T18:00:50.438Z,107.03
2023-02-12T18:03:17.053Z,109.47
2023-02-12T18:05:43.784Z,105.55
2023-02-12T18:08:10.669Z,106.63
2023-02-12T18:10:44.646Z,108.80
2023-02-12T18:13:13.663Z,105.00
2023-02-12T18:15:41.164Z,111.63
2023-02-12T18:18:08.394Z,110.00
2023-02-12T18:20:35.488Z,108.13
2023-02-12T18:23:03.358Z,104.07
2023-02-12T18:25:30.007Z,114.65
2023-02-12T18:27:56.614Z,109.53
2023-02-12T18:30:23.504Z,108.05
2023-02-12T18:32:50.116Z,111.53
2023-02-12T18:35:16.826Z,109.63
2023-02-12T18:37:43.611Z,111.57
2023-02-12T18:40:11.079Z,110.63
2023-02-12T18:42:37.718Z,108.85
2023-02-12T18:45:04.821Z,107.40
2023-02-12T18:47:31.483Z,107.30
2023-02-12T18:49:58.144Z,113.95
2023-02-12T18:52:25.170Z,107.28
2023-02-12T18:54:53.099Z,109.35
2023-02-12T18:57:19.909Z,107.45
2023-02-12T18:59:46.536Z,106.28
2023-02-12T19:02:14.241Z,111.95
2023-02-12T19:04:41.056Z,109.20
2023-02-12T19:07:07.700Z,113.15
2023-02-12T19:09:34.302Z,112.32
2023-02-12T19:12:00.954Z,111.55
2023-02-12T19:14:28.745Z,109.03
2023-02-12T19:16:55.391Z,107.95
2023-02-12T19:19:22.255Z,109.82
2023-02-12T19:21:49.580Z,112.18
2023-02-12T19:24:17.257Z,111.45
2023-02-12T19:26:44.397Z,111.57
2023-02-12T19:29:12.297Z,107.63
2023-02-12T19:31:41.376Z,109.05
2023-02-12T19:34:15.911Z,105.28
2023-02-12T19:36:43.530Z,108.78
2023-02-12T19:39:13.489Z,109.72
2023-02-12T19:41:43.351Z,113.05
2023-02-12T19:44:12.824Z,106.13
2023-02-12T19:46:40.493Z,104.53
2023-02-12T19:49:08.297Z,105.30
2023-02-12T19:51:34.981Z,111.28
2023-02-12T19:54:03.016Z,109.68
2023-02-12T19:56:30.230Z,108.43
2023-02-12T19:58:57.764Z,104.55
2023-02-12T20:01:25.229Z,106.18
2023-02-12T20:03:52.364Z,104.88
2023-02-12T20:06:24.354Z,106.32
2023-02-12T20:08:51.640Z,106.65
2023-02-12T20:11:21.382Z,106.20
2023-02-12T20:13:48.610Z,102.18
2023-02-12T20:16:22.250Z,110.30
2023-02-12T20:18:52.021Z,105.80
2023-02-12T20:21:21.933Z,102.50
2023-02-12T20:23:48.656Z,103.95
2023-02-12T20:26:16.916Z,104.30
2023-02-12T20:28:43.951Z,101.85
2023-02-12T20:31:17.713Z,103.30
2023-02-12T20:33:45.408Z,108.38
2023-02-12T20:36:13.733Z,103.13
2023-02-12T20:38:42.024Z,102.30
2023-02-12T20:41:09.604Z,104.30
2023-02-12T20:43:37.349Z,101.50
2023-02-12T20:46:24.926Z,103.57
2023-02-12T20:48:54.027Z,101.10
2023-02-12T20:51:23.310Z,103.72
2023-02-12T20:53:50.532Z,101.03
2023-02-12T20:56:20.997Z,103.72
2023-02-12T20:58:47.873Z,99.65
2023-02-12T21:01:17.475Z,105.53
2023-02-12T21:03:44.931Z,106.65
2023-02-12T21:06:12.063Z,103.82
2023-02-12T21:08:40.146Z,102.35
2023-02-12T21:11:12.873Z,104.82
2023-02-12T21:13:39.593Z,105.40
2023-02-12T21:16:18.213Z,101.15
2023-02-12T21:18:45.551Z,101.45
2023-02-12T21:21:17.450Z,101.95
2023-02-12T21:23:44.771Z,101.45
2023-02-12T21:26:18.155Z,106.45
2023-02-12T21:28:45.913Z,103.47
2023-02-12T21:31:15.484Z,100.93
2023-02-12T21:33:43.760Z,106.63
2023-02-12T21:36:22.020Z,104.75
2023-02-12T21:38:50.046Z,107.72
2023-02-12T21:41:19.163Z,105.15
2023-02-12T21:43:49.332Z,103.85
2023-02-12T21:46:16.890Z,104.18
2023-02-12T21:48:44.943Z,106.30
2023-02-12T21:51:26.336Z,102.97
2023-02-12T21:53:55.935Z,101.43
2023-02-12T21:56:23.261Z,102.28
2023-02-12T21:58:52.868Z,101.07
2023-02-12T22:01:22.846Z,101.85
2023-02-12T22:03:50.517Z,100.93
2023-02-12T22:06:19.126Z,101.32
2023-02-12T22:08:46.517Z,100.18
2023-02-12T22:11:13.871Z,103.40
2023-02-12T22:13:41.044Z,102.00
2023-02-12T22:16:09.080Z,101.20
2023-02-12T22:18:36.236Z,103.70
2023-02-12T22:21:04.485Z,99.95
2023-02-12T22:23:32.096Z,99.88
2023-02-12T22:26:13.773Z,99.10
2023-02-12T22:28:44.454Z,104.75
2023-02-12T22:31:12.650Z,99.35
2023-02-12T22:33:39.574Z,105.03
2023-02-12T22:36:08.731Z,101.53
2023-02-12T22:38:36.870Z,102.80
2023-02-12T22:41:04.817Z,103.93
2023-02-12T22:43:33.246Z,102.97
2023-02-12T22:45:59.988Z,102.00
2023-02-12T22:48:28.463Z,103.65
2023-02-12T22:50:56.655Z,101.45
2023-02-12T22:53:24.260Z,99.95
2023-02-12T22:55:51.260Z,102.45
2023-02-12T22:58:18.025Z,105.70
2023-02-12T23:00:45.065Z,105.03
2023-02-12T23:03:11.743Z,102.85
2023-02-12T23:05:39.345Z,103.43
2023-02-12T23:08:06.523Z,103.70
2023-02-12T23:10:33.791Z,102.00
2023-02-12T23:13:02.180Z,101.00
2023-02-12T23:15:29.377Z,100.03
2023-02-12T23:17:56.098Z,99.13
2023-02-12T23:20:22.812Z,97.53
2023-02-12T23:22:49.459Z,98.88
2023-02-12T23:25:16.117Z,99.03
2023-02-12T23:27:42.738Z,101.10
2023-02-12T23:30:09.809Z,98.13
2023-02-12T23:32:36.422Z,100.45
2023-02-12T23:35:03.091Z,100.35
2023-02-12T23:37:29.717Z,99.85
2023-02-12T23:39:56.348Z,97.72
2023-02-12T23:42:23.017Z,99.43
2023-02-12T23:44:49.638Z,98.82
2023-02-12T23:47:16.292Z,99.85
2023-02-12T23:49:42.891Z,104.07
2023-02-12T23:52:09.540Z,98.28
2023-02-12T23:54:36.298Z,96.50
2023-02-12T23:57:03.264Z,96.93
2023-02-12T23:59:29.894Z,98.50
